Panorama City, California
Current Conditions -  °F | °C
As of 4:51 PM on Wednesday 22 Oct 2014 (Local Time) from KVNY Reporting Station
Clear Clear  
Wind Chill: 86°   Ceiling: Unl
Heat Index: 86°   Visibility: 10mi
Dew Point: 41°   Wind: 9mph
Humidity: 20%   Direction: 140°SE
Pressure: 29.88"   Gusts: NA
Location:  34.22°N, 118.45°W
Report Text: KVNY 222351Z 14008KT 10SM CLR 30/05 A2988 RMK AO2 SLP109 T03000050 10322 20244 56008
Loading
Personal Weather Stations






























Interactive Weather Map
Tropical Storm Tracking
New forecast layout! Learn more

10-Day Weather Forecast

Advertisements
Track Severe Weather on mobile